首页
METAR-TAF:

METAR-TAF

机场 :

根西岛,

纬度: 49-26N, 经度: 002-36W, 海拔: 102米

当前天气观测

该预报发布于59分钟前的21:50 UTC
风速10节,风向北转东北
温度 13°C
湿度 94%
气压 1006 hPa
能见度10公里或以上
少量云层高于4500英尺

METAR: EGJB 032150Z 02010KT 9999 FEW045 13/12 Q1006

时间: 23:49 (22:49 UTC)

预报

该预报发布于2小时和48分钟前的20:01 UTC
预报有效从03日的 21点(UTC)到 04日的 06点(UTC)
风速6节,风向北转东北
能见度10公里或以上
少量云层高于4500英尺
成为
从 03日的 21点(UTC)到 03日的 23点(UTC)
风速16节,风向北转东北
几率 40% :
短暂存在
从 03日的 21点(UTC)到 03日的 23点(UTC)
能見度: 8000
多云层高于4500英尺, 积雨云.
阵雨
短暂存在
从 03日的 23点(UTC)到 04日的 05点(UTC)
能見度: 6000
多云层高于1000英尺
小雨
几率 30% :
短暂存在
从 03日的 23点(UTC)到 04日的 03点(UTC)
能見度: 3000
多云层高于500英尺

TAF: EGJB 032001Z 0321/0406 03006KT 9999 FEW045 BECMG 0321/0323 03016KT PROB40 TEMPO 0321/0323 8000 SHRA BKN045CB TEMPO 0323/0405 6000 -RA BKN010 PROB30 TEMPO 0323/0403 3000 RA BKN005

超过4000个机场的气象观测和天气预报(METAR&TAF报告)。

可查询的气象台以黄色和红色小点在地图上表示。

将鼠标移到小点上方,可查看气象台名称。

然后点击查看天气观测和预报。

如需切换地图:点击带黑十字的绿色按钮放大地图;点击带横线的绿色按钮缩小地图;或者点击绿色箭头查看邻近地区的地图。


METAR-TAF: